Terminal Aerodrome Forecast
Issued by NWS

Home | Current Version | Previous Version | Text Only | Print | Product List | Glossary On
Versions: 1 2 3 4 5 6 7 8 9 10 11 12 13 14 15 16 17 18
449
FTUS41 KBTV 101200 AAA
TAFSLK
TAF AMD
KSLK 101200Z 1012/1112 VRB03KT 6SM -SN SCT015 OVC035
      TEMPO 1012/1016 3SM -SN BR BKN015 OVC035
     FM101900 25006KT 1 1/2SM -SN BR OVC015
     FM110000 25004KT 2SM -SN BR OVC011=

USA.gov is the U.S. government's official web portal to all federal, state and local government web resources and services.